sensor_id;sensor_type;location;lat;lon;timestamp;temperature;humidity
36424;DHT22;22458;45.328;9.514;2022-12-11T00:01:12;5.60;96.00
36424;DHT22;22458;45.328;9.514;2022-12-11T00:03:38;5.70;96.00
36424;DHT22;22458;45.328;9.514;2022-12-11T00:06:10;5.80;95.90
36424;DHT22;22458;45.328;9.514;2022-12-11T00:08:37;5.90;95.70
36424;DHT22;22458;45.328;9.514;2022-12-11T00:11:03;6.10;95.50
36424;DHT22;22458;45.328;9.514;2022-12-11T00:13:28;6.10;95.20
36424;DHT22;22458;45.328;9.514;2022-12-11T00:15:56;6.20;95.20
36424;DHT22;22458;45.328;9.514;2022-12-11T00:18:22;6.30;95.00
36424;DHT22;22458;45.328;9.514;2022-12-11T00:20:48;6.20;94.80
36424;DHT22;22458;45.328;9.514;2022-12-11T00:23:13;6.10;94.90
36424;DHT22;22458;45.328;9.514;2022-12-11T00:25:44;6.00;95.00
36424;DHT22;22458;45.328;9.514;2022-12-11T00:28:12;5.90;95.10
36424;DHT22;22458;45.328;9.514;2022-12-11T00:30:41;5.90;95.10
36424;DHT22;22458;45.328;9.514;2022-12-11T00:33:09;5.80;95.00
36424;DHT22;22458;45.328;9.514;2022-12-11T00:35:45;5.70;95.10
36424;DHT22;22458;45.328;9.514;2022-12-11T00:38:17;5.70;95.10
36424;DHT22;22458;45.328;9.514;2022-12-11T00:40:44;5.70;95.10
36424;DHT22;22458;45.328;9.514;2022-12-11T00:43:10;5.70;95.10
36424;DHT22;22458;45.328;9.514;2022-12-11T00:45:38;5.80;94.90
36424;DHT22;22458;45.328;9.514;2022-12-11T00:48:05;5.90;94.80
36424;DHT22;22458;45.328;9.514;2022-12-11T00:50:31;6.10;94.50
36424;DHT22;22458;45.328;9.514;2022-12-11T00:52:56;6.10;94.10
36424;DHT22;22458;45.328;9.514;2022-12-11T00:55:22;5.90;94.10
36424;DHT22;22458;45.328;9.514;2022-12-11T00:57:52;5.70;94.10
36424;DHT22;22458;45.328;9.514;2022-12-11T01:00:18;5.60;94.30
36424;DHT22;22458;45.328;9.514;2022-12-11T01:02:43;5.50;94.20
36424;DHT22;22458;45.328;9.514;2022-12-11T01:05:09;5.30;94.30
36424;DHT22;22458;45.328;9.514;2022-12-11T01:07:36;5.30;94.40
36424;DHT22;22458;45.328;9.514;2022-12-11T01:10:03;5.30;94.40
36424;DHT22;22458;45.328;9.514;2022-12-11T01:12:47;5.40;94.30
36424;DHT22;22458;45.328;9.514;2022-12-11T01:15:13;5.50;94.10
36424;DHT22;22458;45.328;9.514;2022-12-11T01:17:38;5.40;94.00
36424;DHT22;22458;45.328;9.514;2022-12-11T01:20:04;5.50;94.10
36424;DHT22;22458;45.328;9.514;2022-12-11T01:22:30;5.60;93.90
36424;DHT22;22458;45.328;9.514;2022-12-11T01:24:56;5.60;93.80
36424;DHT22;22458;45.328;9.514;2022-12-11T01:27:22;5.60;93.70
36424;DHT22;22458;45.328;9.514;2022-12-11T01:29:47;5.60;93.80
36424;DHT22;22458;45.328;9.514;2022-12-11T01:32:14;5.60;93.70
36424;DHT22;22458;45.328;9.514;2022-12-11T01:34:40;5.70;93.70
36424;DHT22;22458;45.328;9.514;2022-12-11T01:37:06;5.70;93.50
36424;DHT22;22458;45.328;9.514;2022-12-11T01:39:32;5.60;93.50
36424;DHT22;22458;45.328;9.514;2022-12-11T01:41:59;5.50;93.60
36424;DHT22;22458;45.328;9.514;2022-12-11T01:46:51;5.70;93.40
36424;DHT22;22458;45.328;9.514;2022-12-11T01:49:20;5.70;93.20
36424;DHT22;22458;45.328;9.514;2022-12-11T01:51:50;5.80;93.20
36424;DHT22;22458;45.328;9.514;2022-12-11T01:54:18;5.90;93.00
36424;DHT22;22458;45.328;9.514;2022-12-11T01:56:47;6.00;92.80
36424;DHT22;22458;45.328;9.514;2022-12-11T01:59:17;5.90;92.60
36424;DHT22;22458;45.328;9.514;2022-12-11T02:04:27;5.90;92.70
36424;DHT22;22458;45.328;9.514;2022-12-11T02:06:53;5.80;92.60
36424;DHT22;22458;45.328;9.514;2022-12-11T02:09:23;5.70;92.60
36424;DHT22;22458;45.328;9.514;2022-12-11T02:17:20;5.50;92.90
36424;DHT22;22458;45.328;9.514;2022-12-11T02:28:46;5.50;92.80
36424;DHT22;22458;45.328;9.514;2022-12-11T02:31:26;5.60;92.70
36424;DHT22;22458;45.328;9.514;2022-12-11T02:36:25;5.60;92.60
36424;DHT22;22458;45.328;9.514;2022-12-11T02:38:56;5.60;92.60
36424;DHT22;22458;45.328;9.514;2022-12-11T02:41:25;5.60;92.70
36424;DHT22;22458;45.328;9.514;2022-12-11T02:43:52;5.60;92.70
36424;DHT22;22458;45.328;9.514;2022-12-11T02:46:20;5.60;92.70
36424;DHT22;22458;45.328;9.514;2022-12-11T02:48:48;5.80;92.60
36424;DHT22;22458;45.328;9.514;2022-12-11T02:51:17;5.90;92.40
36424;DHT22;22458;45.328;9.514;2022-12-11T02:53:45;5.80;92.30
36424;DHT22;22458;45.328;9.514;2022-12-11T02:56:22;5.70;92.40
36424;DHT22;22458;45.328;9.514;2022-12-11T02:58:54;5.60;92.60
36424;DHT22;22458;45.328;9.514;2022-12-11T03:01:21;5.60;92.70
36424;DHT22;22458;45.328;9.514;2022-12-11T03:03:47;5.40;92.90
36424;DHT22;22458;45.328;9.514;2022-12-11T03:06:16;5.20;93.20
36424;DHT22;22458;45.328;9.514;2022-12-11T03:08:45;5.20;93.40
36424;DHT22;22458;45.328;9.514;2022-12-11T03:11:11;5.20;93.40
36424;DHT22;22458;45.328;9.514;2022-12-11T03:13:39;5.20;93.50
36424;DHT22;22458;45.328;9.514;2022-12-11T03:21:54;5.50;93.40
36424;DHT22;22458;45.328;9.514;2022-12-11T03:24:27;5.50;93.60
36424;DHT22;22458;45.328;9.514;2022-12-11T03:27:05;5.60;93.50
36424;DHT22;22458;45.328;9.514;2022-12-11T03:29:36;5.50;93.40
36424;DHT22;22458;45.328;9.514;2022-12-11T03:32:13;5.50;93.70
36424;DHT22;22458;45.328;9.514;2022-12-11T03:34:44;5.40;93.70
36424;DHT22;22458;45.328;9.514;2022-12-11T03:37:13;5.70;93.70
36424;DHT22;22458;45.328;9.514;2022-12-11T03:39:44;5.70;93.50
36424;DHT22;22458;45.328;9.514;2022-12-11T03:42:13;5.70;93.60
36424;DHT22;22458;45.328;9.514;2022-12-11T03:44:42;5.70;93.50
36424;DHT22;22458;45.328;9.514;2022-12-11T03:47:13;5.80;93.50
36424;DHT22;22458;45.328;9.514;2022-12-11T03:49:41;5.70;93.50
36424;DHT22;22458;45.328;9.514;2022-12-11T03:52:09;5.80;93.50
36424;DHT22;22458;45.328;9.514;2022-12-11T03:54:37;5.90;93.40
36424;DHT22;22458;45.328;9.514;2022-12-11T03:57:04;5.90;93.40
36424;DHT22;22458;45.328;9.514;2022-12-11T03:59:32;5.90;93.40
36424;DHT22;22458;45.328;9.514;2022-12-11T04:01:58;6.00;93.40
36424;DHT22;22458;45.328;9.514;2022-12-11T04:04:24;6.10;93.30
36424;DHT22;22458;45.328;9.514;2022-12-11T04:06:50;6.10;93.30
36424;DHT22;22458;45.328;9.514;2022-12-11T04:09:16;6.10;93.30
36424;DHT22;22458;45.328;9.514;2022-12-11T04:11:41;6.10;93.30
36424;DHT22;22458;45.328;9.514;2022-12-11T04:14:10;6.00;93.40
36424;DHT22;22458;45.328;9.514;2022-12-11T04:16:55;6.10;93.50
36424;DHT22;22458;45.328;9.514;2022-12-11T04:19:22;6.10;93.40
36424;DHT22;22458;45.328;9.514;2022-12-11T04:22:07;6.20;93.40
36424;DHT22;22458;45.328;9.514;2022-12-11T04:24:39;6.20;93.40
36424;DHT22;22458;45.328;9.514;2022-12-11T04:27:05;6.00;93.50
36424;DHT22;22458;45.328;9.514;2022-12-11T04:29:31;6.00;93.60
36424;DHT22;22458;45.328;9.514;2022-12-11T04:31:56;6.10;93.60
36424;DHT22;22458;45.328;9.514;2022-12-11T04:34:22;6.10;93.70
36424;DHT22;22458;45.328;9.514;2022-12-11T04:36:48;6.10;93.50
36424;DHT22;22458;45.328;9.514;2022-12-11T04:39:14;6.10;93.40
36424;DHT22;22458;45.328;9.514;2022-12-11T04:41:40;6.20;93.50
36424;DHT22;22458;45.328;9.514;2022-12-11T04:44:06;6.30;93.40
36424;DHT22;22458;45.328;9.514;2022-12-11T04:46:32;6.40;93.40
36424;DHT22;22458;45.328;9.514;2022-12-11T04:48:58;6.50;93.20
36424;DHT22;22458;45.328;9.514;2022-12-11T04:51:26;6.50;93.20
36424;DHT22;22458;45.328;9.514;2022-12-11T04:53:53;6.50;93.10
36424;DHT22;22458;45.328;9.514;2022-12-11T04:56:19;6.50;93.20
36424;DHT22;22458;45.328;9.514;2022-12-11T04:58:45;6.40;93.20
36424;DHT22;22458;45.328;9.514;2022-12-11T05:01:21;6.20;93.50
36424;DHT22;22458;45.328;9.514;2022-12-11T05:03:47;6.30;93.70
36424;DHT22;22458;45.328;9.514;2022-12-11T05:06:13;6.40;93.50
36424;DHT22;22458;45.328;9.514;2022-12-11T05:08:41;6.30;93.40
36424;DHT22;22458;45.328;9.514;2022-12-11T05:11:09;6.30;93.60
36424;DHT22;22458;45.328;9.514;2022-12-11T05:13:35;6.20;93.60
36424;DHT22;22458;45.328;9.514;2022-12-11T05:16:05;6.30;93.50
36424;DHT22;22458;45.328;9.514;2022-12-11T05:18:31;6.30;93.50
36424;DHT22;22458;45.328;9.514;2022-12-11T05:21:00;6.30;93.40
36424;DHT22;22458;45.328;9.514;2022-12-11T05:23:26;6.30;93.30
36424;DHT22;22458;45.328;9.514;2022-12-11T05:25:53;6.40;93.20
36424;DHT22;22458;45.328;9.514;2022-12-11T05:28:20;6.50;93.00
36424;DHT22;22458;45.328;9.514;2022-12-11T05:30:46;6.50;92.90
36424;DHT22;22458;45.328;9.514;2022-12-11T05:33:11;6.40;92.90
36424;DHT22;22458;45.328;9.514;2022-12-11T05:35:38;6.40;92.80
36424;DHT22;22458;45.328;9.514;2022-12-11T05:38:03;6.40;92.80
36424;DHT22;22458;45.328;9.514;2022-12-11T05:40:29;6.40;92.90
36424;DHT22;22458;45.328;9.514;2022-12-11T05:42:55;6.40;92.70
36424;DHT22;22458;45.328;9.514;2022-12-11T05:45:20;6.30;92.80
36424;DHT22;22458;45.328;9.514;2022-12-11T05:47:46;6.30;92.70
36424;DHT22;22458;45.328;9.514;2022-12-11T05:50:12;6.30;92.80
36424;DHT22;22458;45.328;9.514;2022-12-11T05:52:38;6.30;92.80
36424;DHT22;22458;45.328;9.514;2022-12-11T05:55:03;6.30;92.80
36424;DHT22;22458;45.328;9.514;2022-12-11T05:57:29;6.40;92.80
36424;DHT22;22458;45.328;9.514;2022-12-11T05:59:55;6.40;92.50
36424;DHT22;22458;45.328;9.514;2022-12-11T06:02:21;6.40;92.50
36424;DHT22;22458;45.328;9.514;2022-12-11T06:04:47;6.30;92.60
36424;DHT22;22458;45.328;9.514;2022-12-11T06:07:12;6.00;92.70
36424;DHT22;22458;45.328;9.514;2022-12-11T06:09:38;5.80;93.00
36424;DHT22;22458;45.328;9.514;2022-12-11T06:12:04;5.80;93.20
36424;DHT22;22458;45.328;9.514;2022-12-11T06:14:30;5.90;93.10
36424;DHT22;22458;45.328;9.514;2022-12-11T06:16:56;5.90;93.00
36424;DHT22;22458;45.328;9.514;2022-12-11T06:19:21;5.80;93.10
36424;DHT22;22458;45.328;9.514;2022-12-11T06:21:47;5.80;93.10
36424;DHT22;22458;45.328;9.514;2022-12-11T06:24:13;5.70;93.10
36424;DHT22;22458;45.328;9.514;2022-12-11T06:26:39;5.60;93.10
36424;DHT22;22458;45.328;9.514;2022-12-11T06:29:05;5.60;93.30
36424;DHT22;22458;45.328;9.514;2022-12-11T06:31:31;5.60;93.40
36424;DHT22;22458;45.328;9.514;2022-12-11T06:33:56;5.70;93.30
36424;DHT22;22458;45.328;9.514;2022-12-11T06:36:23;5.90;93.10
36424;DHT22;22458;45.328;9.514;2022-12-11T06:38:49;6.00;92.80
36424;DHT22;22458;45.328;9.514;2022-12-11T06:41:16;6.00;92.70
36424;DHT22;22458;45.328;9.514;2022-12-11T06:43:42;6.10;92.70
36424;DHT22;22458;45.328;9.514;2022-12-11T06:46:14;6.10;92.50
36424;DHT22;22458;45.328;9.514;2022-12-11T06:48:41;6.00;92.60
36424;DHT22;22458;45.328;9.514;2022-12-11T06:51:08;5.90;92.60
36424;DHT22;22458;45.328;9.514;2022-12-11T06:53:34;5.60;92.90
36424;DHT22;22458;45.328;9.514;2022-12-11T06:56:02;5.50;93.20
36424;DHT22;22458;45.328;9.514;2022-12-11T06:58:28;5.60;93.30
36424;DHT22;22458;45.328;9.514;2022-12-11T07:00:54;5.60;93.20
36424;DHT22;22458;45.328;9.514;2022-12-11T07:03:19;5.70;93.20
36424;DHT22;22458;45.328;9.514;2022-12-11T07:05:45;5.90;92.80
36424;DHT22;22458;45.328;9.514;2022-12-11T07:08:11;6.20;92.50
36424;DHT22;22458;45.328;9.514;2022-12-11T07:10:36;6.50;92.10
36424;DHT22;22458;45.328;9.514;2022-12-11T07:13:02;6.80;91.60
36424;DHT22;22458;45.328;9.514;2022-12-11T07:15:28;7.10;91.10
36424;DHT22;22458;45.328;9.514;2022-12-11T07:17:54;7.40;90.70
36424;DHT22;22458;45.328;9.514;2022-12-11T07:20:19;7.60;90.30
36424;DHT22;22458;45.328;9.514;2022-12-11T07:22:45;7.80;89.90
36424;DHT22;22458;45.328;9.514;2022-12-11T07:25:11;7.90;89.00
36424;DHT22;22458;45.328;9.514;2022-12-11T07:27:36;7.50;89.70
36424;DHT22;22458;45.328;9.514;2022-12-11T07:30:03;7.50;90.10
36424;DHT22;22458;45.328;9.514;2022-12-11T07:32:28;7.60;90.10
36424;DHT22;22458;45.328;9.514;2022-12-11T07:34:54;7.60;90.10
36424;DHT22;22458;45.328;9.514;2022-12-11T07:37:20;7.70;90.00
36424;DHT22;22458;45.328;9.514;2022-12-11T07:39:46;7.80;89.40
36424;DHT22;22458;45.328;9.514;2022-12-11T07:42:13;8.00;89.00
36424;DHT22;22458;45.328;9.514;2022-12-11T07:44:39;8.10;88.50
36424;DHT22;22458;45.328;9.514;2022-12-11T07:47:04;8.10;88.30
36424;DHT22;22458;45.328;9.514;2022-12-11T07:49:30;8.20;88.30
36424;DHT22;22458;45.328;9.514;2022-12-11T07:51:56;8.20;88.00
36424;DHT22;22458;45.328;9.514;2022-12-11T07:54:22;8.40;87.90
36424;DHT22;22458;45.328;9.514;2022-12-11T07:56:48;8.50;87.50
36424;DHT22;22458;45.328;9.514;2022-12-11T07:59:13;8.60;87.10
36424;DHT22;22458;45.328;9.514;2022-12-11T08:01:41;8.80;86.70
36424;DHT22;22458;45.328;9.514;2022-12-11T08:04:09;8.80;86.30
36424;DHT22;22458;45.328;9.514;2022-12-11T08:06:37;8.70;86.40
36424;DHT22;22458;45.328;9.514;2022-12-11T08:09:06;8.80;86.40
36424;DHT22;22458;45.328;9.514;2022-12-11T08:11:32;8.90;86.10
36424;DHT22;22458;45.328;9.514;2022-12-11T08:13:58;9.00;85.90
36424;DHT22;22458;45.328;9.514;2022-12-11T08:16:25;9.10;85.70
36424;DHT22;22458;45.328;9.514;2022-12-11T08:18:51;9.10;85.70
36424;DHT22;22458;45.328;9.514;2022-12-11T08:21:17;9.10;85.70
36424;DHT22;22458;45.328;9.514;2022-12-11T08:23:44;9.10;85.60
36424;DHT22;22458;45.328;9.514;2022-12-11T08:26:13;9.20;85.40
36424;DHT22;22458;45.328;9.514;2022-12-11T08:28:39;9.10;85.40
36424;DHT22;22458;45.328;9.514;2022-12-11T08:31:09;9.00;85.60
36424;DHT22;22458;45.328;9.514;2022-12-11T08:33:36;8.50;86.50
36424;DHT22;22458;45.328;9.514;2022-12-11T08:36:04;8.40;87.40
36424;DHT22;22458;45.328;9.514;2022-12-11T08:38:30;8.40;87.60
36424;DHT22;22458;45.328;9.514;2022-12-11T08:40:56;8.50;87.70
36424;DHT22;22458;45.328;9.514;2022-12-11T08:43:21;8.70;87.40
36424;DHT22;22458;45.328;9.514;2022-12-11T08:45:47;8.80;87.00
36424;DHT22;22458;45.328;9.514;2022-12-11T08:48:14;8.90;86.80
36424;DHT22;22458;45.328;9.514;2022-12-11T08:50:39;8.90;86.90
36424;DHT22;22458;45.328;9.514;2022-12-11T08:53:05;9.00;86.90
36424;DHT22;22458;45.328;9.514;2022-12-11T08:55:32;9.20;86.60
36424;DHT22;22458;45.328;9.514;2022-12-11T08:57:57;9.50;86.30
36424;DHT22;22458;45.328;9.514;2022-12-11T09:00:23;9.70;85.90
36424;DHT22;22458;45.328;9.514;2022-12-11T09:02:49;9.70;85.60
36424;DHT22;22458;45.328;9.514;2022-12-11T09:05:15;9.70;85.60
36424;DHT22;22458;45.328;9.514;2022-12-11T09:07:40;9.70;86.00
36424;DHT22;22458;45.328;9.514;2022-12-11T09:10:07;9.70;85.90
36424;DHT22;22458;45.328;9.514;2022-12-11T09:12:33;9.50;86.30
36424;DHT22;22458;45.328;9.514;2022-12-11T09:14:59;9.40;86.80
36424;DHT22;22458;45.328;9.514;2022-12-11T09:17:25;9.30;87.00
36424;DHT22;22458;45.328;9.514;2022-12-11T09:19:51;9.40;87.20
36424;DHT22;22458;45.328;9.514;2022-12-11T09:22:17;9.60;86.90
36424;DHT22;22458;45.328;9.514;2022-12-11T09:24:43;9.80;86.30
36424;DHT22;22458;45.328;9.514;2022-12-11T09:27:08;10.00;85.90
36424;DHT22;22458;45.328;9.514;2022-12-11T09:29:34;10.20;85.50
36424;DHT22;22458;45.328;9.514;2022-12-11T09:32:00;10.30;85.00
36424;DHT22;22458;45.328;9.514;2022-12-11T09:34:26;10.50;84.70
36424;DHT22;22458;45.328;9.514;2022-12-11T09:36:52;10.50;84.50
36424;DHT22;22458;45.328;9.514;2022-12-11T09:39:17;10.60;84.30
36424;DHT22;22458;45.328;9.514;2022-12-11T09:46:46;10.90;83.40
36424;DHT22;22458;45.328;9.514;2022-12-11T09:52:05;11.00;82.60
36424;DHT22;22458;45.328;9.514;2022-12-11T09:54:33;11.00;82.50
36424;DHT22;22458;45.328;9.514;2022-12-11T09:57:28;11.10;82.40
36424;DHT22;22458;45.328;9.514;2022-12-11T10:00:31;11.20;82.00
36424;DHT22;22458;45.328;9.514;2022-12-11T10:03:37;11.10;82.10
36424;DHT22;22458;45.328;9.514;2022-12-11T10:16:46;11.30;80.80
36424;DHT22;22458;45.328;9.514;2022-12-11T10:19:26;11.40;80.50
36424;DHT22;22458;45.328;9.514;2022-12-11T10:21:54;11.30;80.00
36424;DHT22;22458;45.328;9.514;2022-12-11T10:25:24;11.20;80.50
36424;DHT22;22458;45.328;9.514;2022-12-11T10:27:21;11.20;80.60
36424;DHT22;22458;45.328;9.514;2022-12-11T10:30:36;11.40;80.30
36424;DHT22;22458;45.328;9.514;2022-12-11T10:32:45;11.40;80.00
36424;DHT22;22458;45.328;9.514;2022-12-11T10:35:33;11.60;79.60
36424;DHT22;22458;45.328;9.514;2022-12-11T10:38:31;11.70;79.20
36424;DHT22;22458;45.328;9.514;2022-12-11T10:41:00;11.70;79.00
36424;DHT22;22458;45.328;9.514;2022-12-11T10:43:41;11.70;79.30
36424;DHT22;22458;45.328;9.514;2022-12-11T10:48:50;11.90;79.10
36424;DHT22;22458;45.328;9.514;2022-12-11T10:51:33;12.00;79.10
36424;DHT22;22458;45.328;9.514;2022-12-11T10:54:26;11.90;79.00
36424;DHT22;22458;45.328;9.514;2022-12-11T10:56:54;12.00;78.90
36424;DHT22;22458;45.328;9.514;2022-12-11T10:59:46;12.00;78.50
36424;DHT22;22458;45.328;9.514;2022-12-11T11:02:30;12.00;78.40
36424;DHT22;22458;45.328;9.514;2022-12-11T11:04:58;12.00;77.80
36424;DHT22;22458;45.328;9.514;2022-12-11T11:07:29;12.10;77.90
36424;DHT22;22458;45.328;9.514;2022-12-11T11:10:14;12.20;77.50
36424;DHT22;22458;45.328;9.514;2022-12-11T11:12:41;12.30;77.10
36424;DHT22;22458;45.328;9.514;2022-12-11T11:15:17;12.30;77.20
36424;DHT22;22458;45.328;9.514;2022-12-11T11:17:46;12.40;77.00
36424;DHT22;22458;45.328;9.514;2022-12-11T11:20:16;12.30;77.20
36424;DHT22;22458;45.328;9.514;2022-12-11T11:22:49;12.40;77.30
36424;DHT22;22458;45.328;9.514;2022-12-11T11:25:21;12.40;77.30
36424;DHT22;22458;45.328;9.514;2022-12-11T11:30:33;12.40;77.40
36424;DHT22;22458;45.328;9.514;2022-12-11T11:33:04;12.40;77.40
36424;DHT22;22458;45.328;9.514;2022-12-11T11:35:31;12.30;77.60
36424;DHT22;22458;45.328;9.514;2022-12-11T11:38:23;12.30;77.80
36424;DHT22;22458;45.328;9.514;2022-12-11T11:43:37;12.30;77.70
36424;DHT22;22458;45.328;9.514;2022-12-11T11:46:15;12.30;77.60
36424;DHT22;22458;45.328;9.514;2022-12-11T11:48:58;12.30;77.70
36424;DHT22;22458;45.328;9.514;2022-12-11T11:51:33;12.30;77.70
36424;DHT22;22458;45.328;9.514;2022-12-11T11:54:06;12.30;77.80
36424;DHT22;22458;45.328;9.514;2022-12-11T11:56:36;12.40;77.60
36424;DHT22;22458;45.328;9.514;2022-12-11T11:59:22;12.40;77.30
36424;DHT22;22458;45.328;9.514;2022-12-11T12:01:53;12.50;77.30
36424;DHT22;22458;45.328;9.514;2022-12-11T12:04:19;12.50;77.20
36424;DHT22;22458;45.328;9.514;2022-12-11T12:07:05;12.50;77.20
36424;DHT22;22458;45.328;9.514;2022-12-11T12:10:05;12.40;77.30
36424;DHT22;22458;45.328;9.514;2022-12-11T12:12:52;12.50;77.20
36424;DHT22;22458;45.328;9.514;2022-12-11T12:20:29;12.60;77.20
36424;DHT22;22458;45.328;9.514;2022-12-11T12:25:56;12.40;77.60
36424;DHT22;22458;45.328;9.514;2022-12-11T12:28:42;12.50;77.80
36424;DHT22;22458;45.328;9.514;2022-12-11T12:31:58;12.60;77.50
36424;DHT22;22458;45.328;9.514;2022-12-11T12:37:37;12.70;76.70
36424;DHT22;22458;45.328;9.514;2022-12-11T12:43:00;12.70;76.40
36424;DHT22;22458;45.328;9.514;2022-12-11T12:45:43;12.80;76.20
36424;DHT22;22458;45.328;9.514;2022-12-11T12:48:10;12.90;75.80
36424;DHT22;22458;45.328;9.514;2022-12-11T12:50:41;12.90;75.60
36424;DHT22;22458;45.328;9.514;2022-12-11T12:53:30;12.90;75.50
36424;DHT22;22458;45.328;9.514;2022-12-11T12:55:55;12.90;75.50
36424;DHT22;22458;45.328;9.514;2022-12-11T13:01:20;12.80;75.90
36424;DHT22;22458;45.328;9.514;2022-12-11T13:06:35;12.80;76.00
36424;DHT22;22458;45.328;9.514;2022-12-11T13:09:21;12.60;76.30
36424;DHT22;22458;45.328;9.514;2022-12-11T13:11:55;12.60;76.90
36424;DHT22;22458;45.328;9.514;2022-12-11T13:14:27;12.60;77.00
36424;DHT22;22458;45.328;9.514;2022-12-11T13:19:47;12.70;77.00
36424;DHT22;22458;45.328;9.514;2022-12-11T13:27:43;12.80;76.80
36424;DHT22;22458;45.328;9.514;2022-12-11T13:32:41;12.90;76.40
36424;DHT22;22458;45.328;9.514;2022-12-11T13:35:14;12.90;76.10
36424;DHT22;22458;45.328;9.514;2022-12-11T13:37:42;13.00;76.00
36424;DHT22;22458;45.328;9.514;2022-12-11T13:40:22;13.00;75.70
36424;DHT22;22458;45.328;9.514;2022-12-11T13:45:22;13.00;75.60
36424;DHT22;22458;45.328;9.514;2022-12-11T13:47:51;12.90;75.60
36424;DHT22;22458;45.328;9.514;2022-12-11T13:50:21;12.80;75.80
36424;DHT22;22458;45.328;9.514;2022-12-11T13:52:55;12.80;75.90
36424;DHT22;22458;45.328;9.514;2022-12-11T13:55:27;12.80;76.00
36424;DHT22;22458;45.328;9.514;2022-12-11T13:57:54;12.80;76.10
36424;DHT22;22458;45.328;9.514;2022-12-11T14:00:26;12.90;76.20
36424;DHT22;22458;45.328;9.514;2022-12-11T14:02:55;12.90;75.80
36424;DHT22;22458;45.328;9.514;2022-12-11T14:05:21;12.90;75.60
36424;DHT22;22458;45.328;9.514;2022-12-11T14:13:03;12.90;75.40
36424;DHT22;22458;45.328;9.514;2022-12-11T14:15:31;12.90;75.40
36424;DHT22;22458;45.328;9.514;2022-12-11T14:17:58;12.90;75.50
36424;DHT22;22458;45.328;9.514;2022-12-11T14:20:28;12.90;75.60
36424;DHT22;22458;45.328;9.514;2022-12-11T14:23:05;12.80;75.80
36424;DHT22;22458;45.328;9.514;2022-12-11T14:25:30;12.80;76.00
36424;DHT22;22458;45.328;9.514;2022-12-11T14:27:56;12.80;75.90
36424;DHT22;22458;45.328;9.514;2022-12-11T14:30:28;12.90;75.80
36424;DHT22;22458;45.328;9.514;2022-12-11T14:33:00;12.80;75.90
36424;DHT22;22458;45.328;9.514;2022-12-11T14:35:29;12.80;76.00
36424;DHT22;22458;45.328;9.514;2022-12-11T14:37:56;12.80;76.10
36424;DHT22;22458;45.328;9.514;2022-12-11T14:40:37;12.70;76.20
36424;DHT22;22458;45.328;9.514;2022-12-11T14:43:10;12.70;76.40
36424;DHT22;22458;45.328;9.514;2022-12-11T14:45:42;12.70;76.40
36424;DHT22;22458;45.328;9.514;2022-12-11T14:48:20;12.70;76.50
36424;DHT22;22458;45.328;9.514;2022-12-11T14:50:50;12.60;76.60
36424;DHT22;22458;45.328;9.514;2022-12-11T14:55:47;12.60;76.40
36424;DHT22;22458;45.328;9.514;2022-12-11T14:58:22;12.60;76.50
36424;DHT22;22458;45.328;9.514;2022-12-11T15:01:05;12.60;76.30
36424;DHT22;22458;45.328;9.514;2022-12-11T15:03:39;12.60;76.10
36424;DHT22;22458;45.328;9.514;2022-12-11T15:06:30;12.60;75.80
36424;DHT22;22458;45.328;9.514;2022-12-11T15:08:56;12.60;75.60
36424;DHT22;22458;45.328;9.514;2022-12-11T15:11:23;12.60;75.70
36424;DHT22;22458;45.328;9.514;2022-12-11T15:13:58;12.50;75.70
36424;DHT22;22458;45.328;9.514;2022-12-11T15:16:27;12.50;75.70
36424;DHT22;22458;45.328;9.514;2022-12-11T15:18:56;12.50;75.70
36424;DHT22;22458;45.328;9.514;2022-12-11T15:21:34;12.50;75.60
36424;DHT22;22458;45.328;9.514;2022-12-11T15:24:05;12.50;75.50
36424;DHT22;22458;45.328;9.514;2022-12-11T15:26:34;12.50;75.40
36424;DHT22;22458;45.328;9.514;2022-12-11T15:29:19;12.50;75.30
36424;DHT22;22458;45.328;9.514;2022-12-11T15:32:01;12.50;75.10
36424;DHT22;22458;45.328;9.514;2022-12-11T15:34:41;12.40;75.00
36424;DHT22;22458;45.328;9.514;2022-12-11T15:39:45;12.30;75.10
36424;DHT22;22458;45.328;9.514;2022-12-11T15:42:15;12.30;75.10
36424;DHT22;22458;45.328;9.514;2022-12-11T15:44:41;12.20;75.10
36424;DHT22;22458;45.328;9.514;2022-12-11T15:47:11;12.10;75.00
36424;DHT22;22458;45.328;9.514;2022-12-11T15:49:37;12.10;75.10
36424;DHT22;22458;45.328;9.514;2022-12-11T15:52:03;12.10;75.10
36424;DHT22;22458;45.328;9.514;2022-12-11T15:54:29;12.10;75.00
36424;DHT22;22458;45.328;9.514;2022-12-11T15:56:55;12.00;75.00
36424;DHT22;22458;45.328;9.514;2022-12-11T15:59:21;12.00;75.10
36424;DHT22;22458;45.328;9.514;2022-12-11T16:01:46;12.00;75.20
36424;DHT22;22458;45.328;9.514;2022-12-11T16:04:13;11.90;75.00
36424;DHT22;22458;45.328;9.514;2022-12-11T16:06:38;12.00;75.10
36424;DHT22;22458;45.328;9.514;2022-12-11T16:09:09;11.90;75.10
36424;DHT22;22458;45.328;9.514;2022-12-11T16:11:35;11.80;75.10
36424;DHT22;22458;45.328;9.514;2022-12-11T16:14:01;11.90;75.10
36424;DHT22;22458;45.328;9.514;2022-12-11T16:16:30;11.90;74.90
36424;DHT22;22458;45.328;9.514;2022-12-11T16:18:56;11.90;74.60
36424;DHT22;22458;45.328;9.514;2022-12-11T16:21:21;12.00;74.30
36424;DHT22;22458;45.328;9.514;2022-12-11T16:23:47;12.10;74.10
36424;DHT22;22458;45.328;9.514;2022-12-11T16:26:13;12.10;73.70
36424;DHT22;22458;45.328;9.514;2022-12-11T16:28:41;12.10;73.90
36424;DHT22;22458;45.328;9.514;2022-12-11T16:31:11;12.20;73.10
36424;DHT22;22458;45.328;9.514;2022-12-11T16:33:38;12.20;73.00
36424;DHT22;22458;45.328;9.514;2022-12-11T16:36:14;12.20;72.80
36424;DHT22;22458;45.328;9.514;2022-12-11T16:38:43;12.20;73.30
36424;DHT22;22458;45.328;9.514;2022-12-11T16:41:09;12.30;72.80
36424;DHT22;22458;45.328;9.514;2022-12-11T16:43:35;12.20;72.70
36424;DHT22;22458;45.328;9.514;2022-12-11T16:46:01;12.30;72.60
36424;DHT22;22458;45.328;9.514;2022-12-11T16:48:26;12.30;72.50
36424;DHT22;22458;45.328;9.514;2022-12-11T16:50:53;12.30;72.40
36424;DHT22;22458;45.328;9.514;2022-12-11T16:53:19;12.20;72.20
36424;DHT22;22458;45.328;9.514;2022-12-11T16:55:45;12.20;72.80
36424;DHT22;22458;45.328;9.514;2022-12-11T16:58:11;12.20;72.20
36424;DHT22;22458;45.328;9.514;2022-12-11T17:00:42;12.10;72.20
36424;DHT22;22458;45.328;9.514;2022-12-11T17:03:08;12.00;72.20
36424;DHT22;22458;45.328;9.514;2022-12-11T17:05:34;12.00;72.20
36424;DHT22;22458;45.328;9.514;2022-12-11T17:08:00;12.00;72.20
36424;DHT22;22458;45.328;9.514;2022-12-11T17:10:25;12.00;72.20
36424;DHT22;22458;45.328;9.514;2022-12-11T17:12:51;12.00;72.10
36424;DHT22;22458;45.328;9.514;2022-12-11T17:15:17;11.90;72.00
36424;DHT22;22458;45.328;9.514;2022-12-11T17:17:43;11.90;72.00
36424;DHT22;22458;45.328;9.514;2022-12-11T17:20:09;11.90;72.30
36424;DHT22;22458;45.328;9.514;2022-12-11T17:22:35;11.80;72.30
36424;DHT22;22458;45.328;9.514;2022-12-11T17:25:01;11.80;72.60
36424;DHT22;22458;45.328;9.514;2022-12-11T17:27:27;11.70;72.70
36424;DHT22;22458;45.328;9.514;2022-12-11T17:29:53;11.70;72.70
36424;DHT22;22458;45.328;9.514;2022-12-11T17:32:19;11.70;72.50